GMTN/TTU METAR and TAF weather

Enter ICAO airport designator
Station Type Date Time Source
GMTN METAR 2022/01/27 23:00 UTC NOAA

GMTN 272300Z 10004KT 9999 SCT023 13/10 Q1025 NOSIG


Station Type Date Time Source
GMTN Decoded METAR 2022/01/27 23:00 UTC NOAA

Tetuan / Sania Ramel, Morocco (GMTN) 35-35N 005-20W 10M
Jan 27, 2022 - 06:00 PM EST / 2022.01.27 2300 UTC
Wind: from the E (100 degrees) at 5 MPH (4 KT):0
Visibility: greater than 7 mile(s):0
Sky conditions: partly cloudy
Temperature: 55 F (13 C)
Dew Point: 50 F (10 C)
Relative Humidity: 81%
Pressure (altimeter): 30.27 in. Hg (1025 hPa)
ob: GMTN 272300Z 10004KT 9999 SCT023 13/10 Q1025 NOSIG
cycle: 23

Station Type Date Time Source
GMTN TAF 2021/07/02 12:21 UTC NOAA

TAF GMTN 021100Z 0212/0318 09008KT CAVOK
BECMG 0219/0223 26012KT

Example: see airport list